Time;durP1;ratioP1;P1;durP2;ratioP2;P2;SDS_P1;SDS_P2;PMS_P1;PMS_P2;Temp;Humidity;BMP_temperature;BMP_pressure;BME280_temperature;BME280_humidity;BME280_pressure;Samples;Min_cycle;Max_cycle;Signal;HPM_P1;HPM_P2
2023/01/12 00:00:34;;;;;;;;;;;;;;;19.06;46.36;100812.31;5151069;27;19939;-53
2023/01/12 00:03:00;;;;;;;;;;;;;;;19.04;46.38;100818.13;5152200;27;19923;-53
2023/01/12 00:05:25;;;;;;;;;;;;;;;19.05;46.64;100810.66;5153454;27;20324;-53
2023/01/12 00:07:51;;;;;;;;;;;;;;;19.05;46.50;100811.50;5152015;27;19923;-52
2023/01/12 00:10:16;;;;;;;;;;;;;;;19.04;46.46;100807.09;5153289;27;19923;-52
2023/01/12 00:12:42;;;;;;;;;;;;;;;19.04;46.67;100807.09;5153182;27;19930;-52
2023/01/12 00:15:08;;;;;;;;;;;;;;;19.04;46.48;100804.31;5153095;27;19923;-53
2023/01/12 00:17:33;;;;;;;;;;;;;;;19.04;46.38;100801.56;5152916;27;20294;-53
2023/01/12 00:19:59;;;;;;;;;;;;;;;19.05;46.32;100794.09;5152537;27;19930;-52
2023/01/12 00:22:24;;;;;;;;;;;;;;;19.04;46.69;100789.66;5153038;27;20435;-51
2023/01/12 00:24:51;;;;;;;;;;;;;;;19.04;46.35;100792.44;5152277;27;19923;-52
2023/01/12 00:27:18;;;;;;;;;;;;;;;19.04;46.38;100779.47;5152805;27;19931;-53
2023/01/12 00:29:44;;;;;;;;;;;;;;;19.04;46.42;100786.91;5133616;27;19962;-52
2023/01/12 00:32:11;;;;;;;;;;;;;;;19.04;46.67;100781.38;5152992;27;19931;-52
2023/01/12 00:34:36;;;;;;;;;;;;;;;19.04;46.47;100779.47;5152650;27;19923;-53
2023/01/12 00:37:02;;;;;;;;;;;;;;;19.03;46.56;100777.81;5152595;27;19948;-53
2023/01/12 00:39:28;;;;;;;;;;;;;;;19.04;46.65;100775.88;5154466;27;19927;-52
2023/01/12 00:47:25;;;;;;;;;;;;;;;19.03;46.60;100766.75;5140425;27;19923;-53
2023/01/12 00:49:51;;;;;;;;;;;;;;;19.03;46.36;100757.66;5131898;28;20299;-53
2023/01/12 00:52:18;;;;;;;;;;;;;;;19.03;46.30;100763.19;5131797;28;20360;-52
2023/01/12 00:54:55;;;;;;;;;;;;;;;19.03;46.33;100768.72;5114847;28;19927;-53
2023/01/12 00:57:21;;;;;;;;;;;;;;;19.02;46.37;100761.53;5131562;27;20416;-52
2023/01/12 00:59:46;;;;;;;;;;;;;;;19.02;46.33;100759.59;5146929;27;19923;-52
2023/01/12 01:02:12;;;;;;;;;;;;;;;19.02;46.59;100754.09;5151960;27;19923;-52
2023/01/12 01:04:38;;;;;;;;;;;;;;;19.02;46.51;100753.25;5152377;27;19927;-53
2023/01/12 01:07:03;;;;;;;;;;;;;;;19.02;46.58;100754.09;5146386;27;19931;-52
2023/01/12 01:09:29;;;;;;;;;;;;;;;19.02;46.41;100748.56;5131084;27;19927;-52
2023/01/12 01:11:55;;;;;;;;;;;;;;;19.02;46.45;100751.31;5113289;28;20007;-53
2023/01/12 01:14:21;;;;;;;;;;;;;;;19.02;46.65;100750.50;5131521;28;20001;-53
2023/01/12 01:16:46;;;;;;;;;;;;;;;19.02;46.32;100750.50;5131319;27;19923;-52
2023/01/12 01:19:12;;;;;;;;;;;;;;;19.02;46.50;100753.25;5131216;27;19923;-54
2023/01/12 01:21:37;;;;;;;;;;;;;;;19.02;46.67;100751.31;5144385;27;19967;-53
2023/01/12 01:24:03;;;;;;;;;;;;;;;19.00;46.28;100748.03;5151765;27;20394;-53
2023/01/12 01:26:30;;;;;;;;;;;;;;;19.01;46.29;100757.97;5151336;27;20002;-53
2023/01/12 01:28:56;;;;;;;;;;;;;;;19.01;46.31;100752.44;5139053;27;20621;-53
2023/01/12 01:31:22;;;;;;;;;;;;;;;19.01;46.53;100751.63;5132156;27;19975;-53
2023/01/12 01:33:48;;;;;;;;;;;;;;;19.01;46.17;100749.69;5133399;27;20173;-53
2023/01/12 01:36:17;;;;;;;;;;;;;;;19.01;46.66;100746.91;5133380;27;20059;-53
2023/01/12 01:38:43;;;;;;;;;;;;;;;19.00;46.45;100748.03;5131948;27;19923;-51
2023/01/12 01:41:09;;;;;;;;;;;;;;;19.01;46.68;100754.38;5144502;27;20178;-53
2023/01/12 01:43:54;;;;;;;;;;;;;;;19.00;46.34;100742.53;5154025;27;19938;-52
2023/01/12 01:46:24;;;;;;;;;;;;;;;19.00;46.45;100748.03;5156987;27;19922;-53
2023/01/12 01:48:50;;;;;;;;;;;;;;;18.99;46.37;100751.88;5130366;27;20339;-52
2023/01/12 01:51:16;;;;;;;;;;;;;;;19.00;46.34;100744.47;5130878;28;19930;-54
2023/01/12 01:53:42;;;;;;;;;;;;;;;19.01;46.50;100737.81;5130536;28;19923;-52
2023/01/12 01:56:10;;;;;;;;;;;;;;;19.00;46.39;100738.94;5130806;28;19954;-53
2023/01/12 01:58:38;;;;;;;;;;;;;;;19.00;46.47;100734.25;5135953;27;20390;-53
2023/01/12 02:01:03;;;;;;;;;;;;;;;18.99;46.56;100724.28;5150670;27;19923;-51
2023/01/12 02:03:29;;;;;;;;;;;;;;;18.99;46.26;100721.53;5150374;27;19934;-54
2023/01/12 02:05:57;;;;;;;;;;;;;;;18.99;46.18;100712.44;5151435;27;19930;-52
2023/01/12 02:08:25;;;;;;;;;;;;;;;18.99;46.46;100702.22;5134553;27;19927;-54
2023/01/12 02:10:51;;;;;;;;;;;;;;;18.99;46.58;100702.22;5112148;28;19927;-52
2023/01/12 02:16:22;;;;;;;;;;;;;;;18.99;46.56;100690.34;5115060;28;19951;-53
2023/01/12 02:19:07;;;;;;;;;;;;;;;18.98;46.28;100684.00;5130392;27;19923;-53
2023/01/12 02:21:53;;;;;;;;;;;;;;;18.99;46.45;100682.06;5115067;28;19970;-50
2023/01/12 02:24:24;;;;;;;;;;;;;;;18.99;46.60;100685.66;5134288;27;19926;-53
2023/01/12 02:26:55;;;;;;;;;;;;;;;18.97;46.43;100679.59;5150971;27;19937;-52
2023/01/12 02:29:40;;;;;;;;;;;;;;;18.97;46.28;100684.31;5150057;27;20355;-52
2023/01/12 02:32:26;;;;;;;;;;;;;;;18.98;46.56;100681.25;5134713;27;19927;-53
2023/01/12 02:35:11;;;;;;;;;;;;;;;18.98;46.24;100675.72;5135522;27;19930;-52
2023/01/12 02:37:46;;;;;;;;;;;;;;;18.98;46.45;100678.50;5135244;27;19951;-53
2023/01/12 02:40:21;;;;;;;;;;;;;;;18.97;46.45;100678.78;5158573;27;19923;-52
2023/01/12 02:42:53;;;;;;;;;;;;;;;18.97;46.27;100667.75;5172234;27;19971;-53
2023/01/12 02:45:38;;;;;;;;;;;;;;;18.97;46.64;100662.22;5173114;27;19923;-52
2023/01/12 02:48:05;;;;;;;;;;;;;;;18.98;46.28;100667.44;5138570;27;19934;-53
2023/01/12 02:50:51;;;;;;;;;;;;;;;18.98;46.27;100652.84;5154409;27;20364;-53
2023/01/12 02:53:20;;;;;;;;;;;;;;;18.97;46.47;100659.47;5138731;27;19962;-53
2023/01/12 02:55:45;;;;;;;;;;;;;;;18.97;46.17;100651.19;5135676;27;20336;-54
2023/01/12 02:58:11;;;;;;;;;;;;;;;18.96;46.57;100639.31;5154148;27;20362;-53
2023/01/12 03:00:37;;;;;;;;;;;;;;;18.96;46.29;100638.50;5153998;27;19923;-52
2023/01/12 03:03:03;;;;;;;;;;;;;;;18.96;46.35;100636.56;5153894;27;19927;-53
2023/01/12 03:05:29;;;;;;;;;;;;;;;18.97;46.47;100640.97;5154372;27;20177;-51
2023/01/12 03:07:57;;;;;;;;;;;;;;;18.95;46.50;100629.38;5154018;27;19931;-53
2023/01/12 03:10:29;;;;;;;;;;;;;;;18.97;46.28;100624.41;5154096;27;19923;-53
2023/01/12 03:12:55;;;;;;;;;;;;;;;18.95;46.29;100615.56;5154478;27;19976;-52
2023/01/12 03:15:21;;;;;;;;;;;;;;;18.96;46.47;100620.00;5154321;27;19927;-52
2023/01/12 03:17:49;;;;;;;;;;;;;;;18.95;46.20;100623.84;5153770;27;19931;-53
2023/01/12 03:20:18;;;;;;;;;;;;;;;18.96;46.31;100614.50;5153256;27;20394;-52
2023/01/12 03:22:43;;;;;;;;;;;;;;;18.95;46.39;100621.09;5153998;27;19926;-52
2023/01/12 03:25:10;;;;;;;;;;;;;;;18.96;46.61;100620.00;5153213;27;19956;-53
2023/01/12 03:27:37;;;;;;;;;;;;;;;18.95;46.27;100610.06;5135134;27;19923;-52
2023/01/12 03:30:07;;;;;;;;;;;;;;;18.96;46.22;100608.16;5153155;27;19930;-53
2023/01/12 03:32:33;;;;;;;;;;;;;;;18.95;46.44;100600.97;5153950;27;19930;-53
2023/01/12 03:34:58;;;;;;;;;;;;;;;18.95;46.33;100606.47;5154314;27;19923;-52
2023/01/12 03:37:33;;;;;;;;;;;;;;;18.96;46.45;100624.72;5153605;27;19974;-52
2023/01/12 03:40:08;;;;;;;;;;;;;;;18.95;46.30;100606.47;5135000;27;19927;-52
2023/01/12 03:42:45;;;;;;;;;;;;;;;18.94;46.37;100605.66;5134574;27;20439;-52
2023/01/12 03:45:14;;;;;;;;;;;;;;;18.95;46.41;100598.19;5135436;27;19927;-52
2023/01/12 03:47:40;;;;;;;;;;;;;;;18.95;46.42;100592.69;5153624;27;20363;-52
2023/01/12 03:50:10;;;;;;;;;;;;;;;18.94;46.30;100571.72;5153701;27;19927;-53
2023/01/12 03:52:36;;;;;;;;;;;;;;;18.94;46.37;100572.53;5152778;27;19927;-52
2023/01/12 03:55:02;;;;;;;;;;;;;;;18.95;46.24;100573.38;5134197;27;19923;-53
2023/01/12 03:57:27;;;;;;;;;;;;;;;18.95;46.63;100573.38;5153034;27;19923;-53
2023/01/12 03:59:53;;;;;;;;;;;;;;;18.94;46.55;100569.78;5152651;27;19972;-53
2023/01/12 04:02:19;;;;;;;;;;;;;;;18.94;46.21;100564.28;5152944;27;19938;-53
2023/01/12 04:04:44;;;;;;;;;;;;;;;18.94;46.63;100556.00;5153122;27;19939;-52
2023/01/12 04:07:10;;;;;;;;;;;;;;;18.93;46.38;100548.81;5153214;27;20314;-53
2023/01/12 04:09:36;;;;;;;;;;;;;;;18.95;46.66;100554.06;5152534;27;19923;-52
2023/01/12 04:12:09;;;;;;;;;;;;;;;18.94;46.47;100547.72;5153341;27;20382;-52
2023/01/12 04:14:36;;;;;;;;;;;;;;;18.93;46.44;100540.56;5152948;27;20034;-53
2023/01/12 04:17:01;;;;;;;;;;;;;;;18.94;46.64;100541.38;5153271;27;19966;-50
2023/01/12 04:19:27;;;;;;;;;;;;;;;18.93;46.29;100543.31;5152961;27;19930;-50
2023/01/12 04:24:38;;;;;;;;;;;;;;;18.94;46.40;100541.38;5137290;27;19927;-52
2023/01/12 04:27:03;;;;;;;;;;;;;;;18.93;46.58;100537.78;5146687;27;20303;-52
2023/01/12 04:29:29;;;;;;;;;;;;;;;18.93;46.47;100539.72;5144675;27;19923;-52
2023/01/12 04:31:54;;;;;;;;;;;;;;;18.93;46.35;100523.19;5152915;27;20291;-52
2023/01/12 04:34:20;;;;;;;;;;;;;;;18.93;46.29;100520.41;5152931;27;19934;-54
2023/01/12 04:36:45;;;;;;;;;;;;;;;18.93;46.30;100523.19;5150123;27;19923;-53
2023/01/12 04:39:11;;;;;;;;;;;;;;;18.93;46.43;100498.34;5132283;27;19923;-52
2023/01/12 04:41:37;;;;;;;;;;;;;;;18.91;46.34;100501.41;5151607;27;19931;-53
2023/01/12 04:44:03;;;;;;;;;;;;;;;18.93;46.32;100503.88;5152884;27;19923;-53
2023/01/12 04:46:29;;;;;;;;;;;;;;;18.92;46.52;100503.03;5152180;27;20428;-53
2023/01/12 04:48:54;;;;;;;;;;;;;;;18.94;46.48;100488.94;5152441;27;19927;-52
2023/01/12 04:51:20;;;;;;;;;;;;;;;18.91;46.30;100486.75;5152547;27;19923;-53
2023/01/12 04:53:47;;;;;;;;;;;;;;;18.92;46.60;100474.63;5152346;27;19923;-54
2023/01/12 04:56:12;;;;;;;;;;;;;;;18.92;46.31;100461.66;5152584;27;19923;-53
2023/01/12 04:58:38;;;;;;;;;;;;;;;18.92;46.33;100475.44;5151766;27;19926;-53
2023/01/12 05:01:07;;;;;;;;;;;;;;;18.92;46.26;100469.09;5152028;27;20284;-51
2023/01/12 05:03:33;;;;;;;;;;;;;;;18.91;46.26;100461.91;5152130;27;20439;-53
2023/01/12 05:06:00;;;;;;;;;;;;;;;18.93;46.39;100462.47;5151327;27;19924;-52
2023/01/12 05:11:11;;;;;;;;;;;;;;;18.91;46.59;100450.88;5136676;27;19957;-52
2023/01/12 05:13:36;;;;;;;;;;;;;;;18.91;46.25;100451.75;5152019;27;19923;-52
2023/01/12 05:16:10;;;;;;;;;;;;;;;18.91;46.49;100448.97;5152092;27;20180;-51
2023/01/12 05:18:35;;;;;;;;;;;;;;;18.92;46.29;100458.91;5152001;27;19923;-51
2023/01/12 05:21:01;;;;;;;;;;;;;;;18.90;46.51;100433.50;5152041;27;19930;-50
2023/01/12 05:23:27;;;;;;;;;;;;;;;18.90;46.61;100430.75;5133002;27;20324;-53
2023/01/12 05:25:52;;;;;;;;;;;;;;;18.90;46.63;100438.22;5151982;27;19927;-53
2023/01/12 05:28:18;;;;;;;;;;;;;;;18.90;46.38;100421.66;5151137;27;19935;-53
2023/01/12 05:30:43;;;;;;;;;;;;;;;18.90;46.31;100416.97;5151428;27;20359;-52
2023/01/12 05:33:15;;;;;;;;;;;;;;;18.90;46.24;100407.84;5151369;27;19930;-53
2023/01/12 05:35:40;;;;;;;;;;;;;;;18.90;46.56;100402.34;5152033;27;19962;-53
2023/01/12 05:38:06;;;;;;;;;;;;;;;18.90;46.23;100386.59;5132981;27;19988;-53
2023/01/12 05:40:31;;;;;;;;;;;;;;;18.89;46.28;100376.69;5155392;27;19923;-52
2023/01/12 05:45:42;;;;;;;;;;;;;;;18.90;46.18;100377.50;5156665;27;19923;-53
2023/01/12 05:48:08;;;;;;;;;;;;;;;18.90;46.30;100369.22;5143255;27;20092;-52
2023/01/12 05:50:34;;;;;;;;;;;;;;;18.89;46.20;100351.84;5130934;28;20376;-53
2023/01/12 05:53:00;;;;;;;;;;;;;;;18.89;46.27;100332.53;5130848;28;19930;-53
2023/01/12 05:55:25;;;;;;;;;;;;;;;18.89;46.32;100335.31;5130562;28;19927;-52
2023/01/12 05:57:51;;;;;;;;;;;;;;;18.88;46.59;100361.25;5130879;27;19924;-54
2023/01/12 06:00:17;;;;;;;;;;;;;;;18.90;46.32;100349.91;5150407;27;19981;-52
2023/01/12 06:02:42;;;;;;;;;;;;;;;18.89;46.34;100335.31;5132607;27;19966;-51
2023/01/12 06:05:08;;;;;;;;;;;;;;;18.88;46.26;100347.47;5150997;27;19946;-52
2023/01/12 06:07:34;;;;;;;;;;;;;;;18.89;46.34;100356.56;5141716;27;20415;-53
2023/01/12 06:10:00;;;;;;;;;;;;;;;18.88;46.60;100352.97;5130434;28;19923;-53
2023/01/12 06:15:11;;;;;;;;;;;;;;;18.88;46.60;100322.63;5115059;28;19923;-52
2023/01/12 06:17:36;;;;;;;;;;;;;;;18.88;46.39;100364.03;5130301;27;19923;-53
2023/01/12 06:20:02;;;;;;;;;;;;;;;18.89;46.27;100349.09;5130482;28;19923;-53
2023/01/12 06:22:27;;;;;;;;;;;;;;;18.88;46.25;100333.66;5129525;28;19974;-52
2023/01/12 06:24:53;;;;;;;;;;;;;;;18.89;46.55;100342.75;5130117;28;19927;-51
2023/01/12 06:27:19;;;;;;;;;;;;;;;18.88;46.25;100330.09;5130266;27;19984;-53
2023/01/12 06:29:44;;;;;;;;;;;;;;;18.89;46.56;100329.78;5142442;27;19999;-52
2023/01/12 06:32:10;;;;;;;;;;;;;;;18.87;46.32;100326.50;5149948;27;20360;-51
2023/01/12 06:34:36;;;;;;;;;;;;;;;18.87;46.29;100328.44;5150004;27;19934;-52
2023/01/12 06:37:01;;;;;;;;;;;;;;;18.87;46.55;100326.50;5130781;27;20328;-52
2023/01/12 06:39:27;;;;;;;;;;;;;;;18.87;46.49;100323.75;5160483;27;19930;-52
2023/01/12 06:44:38;;;;;;;;;;;;;;;18.88;46.36;100321.81;5136022;27;20031;-51
2023/01/12 06:47:04;;;;;;;;;;;;;;;18.87;46.26;100311.88;5131464;27;20363;-51
2023/01/12 06:49:29;;;;;;;;;;;;;;;18.87;46.25;100322.91;5150526;27;19927;-53
2023/01/12 06:51:55;;;;;;;;;;;;;;;18.87;46.56;100312.72;5149262;27;19927;-53
2023/01/12 06:54:20;;;;;;;;;;;;;;;18.88;46.55;100314.34;5146250;27;19946;-52
2023/01/12 06:56:47;;;;;;;;;;;;;;;18.87;46.39;100331.19;5146172;27;20465;-53
2023/01/12 06:59:13;;;;;;;;;;;;;;;18.86;46.29;100311.06;5126864;27;19923;-55
2023/01/12 07:01:39;;;;;;;;;;;;;;;18.90;46.87;100308.53;5118057;28;19927;-56
2023/01/12 07:04:04;;;;;;;;;;;;;;;18.93;47.86;100311.53;5128990;27;20481;-52
2023/01/12 07:06:30;;;;;;;;;;;;;;;18.93;47.68;100307.94;5132919;27;19927;-52
2023/01/12 07:08:55;;;;;;;;;;;;;;;18.91;47.59;100321.19;5133194;27;19927;-53
2023/01/12 07:11:21;;;;;;;;;;;;;;;18.91;47.83;100319.28;5140206;27;19935;-53
2023/01/12 07:13:47;;;;;;;;;;;;;;;18.91;47.43;100311.00;5134421;27;19938;-53
2023/01/12 07:16:12;;;;;;;;;;;;;;;18.91;47.40;100311.00;5132312;27;19991;-54
2023/01/12 07:18:38;;;;;;;;;;;;;;;18.91;47.37;100301.88;5139752;27;19923;-53
2023/01/12 07:21:04;;;;;;;;;;;;;;;18.91;47.35;100316.53;5139565;27;19923;-52
2023/01/12 07:23:30;;;;;;;;;;;;;;;18.91;47.45;100311.00;5146815;27;19927;-54
2023/01/12 07:25:55;;;;;;;;;;;;;;;18.92;47.43;100314.59;5140518;27;19954;-52
2023/01/12 07:28:21;;;;;;;;;;;;;;;18.92;47.30;100304.38;5137198;27;19964;-53
2023/01/12 07:30:46;;;;;;;;;;;;;;;18.93;47.46;100302.44;5143589;27;19976;-52
2023/01/12 07:33:12;;;;;;;;;;;;;;;18.93;47.18;100291.41;5144206;27;19931;-51
2023/01/12 07:35:38;;;;;;;;;;;;;;;18.93;47.19;100294.97;5120421;27;19927;-54
2023/01/12 07:38:05;;;;;;;;;;;;;;;18.93;47.39;100297.75;5114957;27;19931;-50
2023/01/12 07:40:30;;;;;;;;;;;;;;;18.94;47.10;100299.38;5142253;27;19962;-50
2023/01/12 07:42:59;;;;;;;;;;;;;;;18.94;47.10;100306.84;5138821;27;20004;-53
2023/01/12 07:45:25;;;;;;;;;;;;;;;18.95;47.01;100305.72;5126876;27;19999;-53
2023/01/12 07:47:51;;;;;;;;;;;;;;;18.94;47.32;100317.88;5132976;27;20498;-53
2023/01/12 07:50:17;;;;;;;;;;;;;;;18.95;47.36;100325.84;5137119;27;20009;-51
2023/01/12 07:52:42;;;;;;;;;;;;;;;18.96;47.38;100316.47;5141667;27;19931;-54
2023/01/12 07:55:08;;;;;;;;;;;;;;;18.96;46.94;100307.38;5129535;27;19931;-53
2023/01/12 07:57:36;;;;;;;;;;;;;;;18.96;47.31;100316.47;5124040;27;19927;-53
2023/01/12 08:00:03;;;;;;;;;;;;;;;18.96;47.17;100315.66;5131313;27;20035;-52
2023/01/12 08:02:28;;;;;;;;;;;;;;;18.96;47.24;100302.69;5116230;27;20576;-53
2023/01/12 08:04:54;;;;;;;;;;;;;;;18.98;47.15;100319.75;5125154;27;20642;-53
2023/01/12 08:07:19;;;;;;;;;;;;;;;18.97;47.24;100320.03;5127391;27;19980;-53
2023/01/12 08:09:45;;;;;;;;;;;;;;;18.98;47.03;100325.25;5128379;27;20107;-53
2023/01/12 08:12:11;;;;;;;;;;;;;;;18.98;47.22;100324.44;5116461;27;19937;-51
2023/01/12 08:14:37;;;;;;;;;;;;;;;18.98;47.31;100328.03;5129656;27;19987;-54
2023/01/12 08:17:02;;;;;;;;;;;;;;;18.97;47.02;100325.56;5109133;27;19931;-52
2023/01/12 08:19:30;;;;;;;;;;;;;;;18.97;47.24;100323.63;5135144;27;20012;-52
2023/01/12 08:21:57;;;;;;;;;;;;;;;18.98;47.03;100321.69;5132046;27;19939;-52
2023/01/12 08:24:24;;;;;;;;;;;;;;;18.96;47.09;100335.78;5138641;27;19923;-53
2023/01/12 08:26:50;;;;;;;;;;;;;;;18.96;47.21;100333.03;5136901;27;19946;-53
2023/01/12 08:29:22;;;;;;;;;;;;;;;18.97;47.18;100342.13;5121787;27;19931;-53
2023/01/12 08:31:47;;;;;;;;;;;;;;;18.96;46.92;100333.03;5115875;27;19958;-53
2023/01/12 08:34:13;;;;;;;;;;;;;;;18.97;47.08;100342.94;5133774;27;20355;-53
2023/01/12 08:36:38;;;;;;;;;;;;;;;18.98;47.27;100346.53;5137527;27;19927;-53
2023/01/12 08:39:04;;;;;;;;;;;;;;;18.96;46.96;100338.53;5135684;27;19927;-52
2023/01/12 08:41:31;;;;;;;;;;;;;;;18.97;47.25;100339.38;5134340;27;19927;-53
2023/01/12 08:44:06;;;;;;;;;;;;;;;18.97;47.21;100347.66;5117004;27;20224;-52
2023/01/12 08:46:34;;;;;;;;;;;;;;;18.97;47.08;100337.44;5135523;27;20287;-54
2023/01/12 08:48:59;;;;;;;;;;;;;;;18.95;47.11;100336.88;5142353;27;19923;-53
2023/01/12 08:51:25;;;;;;;;;;;;;;;18.96;47.07;100341.31;5120685;27;19970;-52
2023/01/12 08:53:51;;;;;;;;;;;;;;;18.96;47.28;100346.81;5122796;27;19924;-53
2023/01/12 08:56:16;;;;;;;;;;;;;;;18.95;47.18;100345.16;5138244;27;19927;-53
2023/01/12 08:58:42;;;;;;;;;;;;;;;18.95;47.36;100344.34;5112426;27;20021;-53
2023/01/12 09:01:08;;;;;;;;;;;;;;;18.95;47.23;100347.09;5129015;27;19927;-53
2023/01/12 09:03:34;;;;;;;;;;;;;;;18.94;47.28;100343.53;5109851;27;20001;-55
2023/01/12 09:06:08;;;;;;;;;;;;;;;18.95;47.28;100349.84;5131642;27;20228;-54
2023/01/12 09:08:34;;;;;;;;;;;;;;;18.95;47.24;100347.09;5123447;27;20327;-55
2023/01/12 09:11:02;;;;;;;;;;;;;;;18.95;47.17;100341.59;5129512;27;19927;-54
2023/01/12 09:13:27;;;;;;;;;;;;;;;18.95;47.12;100347.09;5128470;27;20402;-54
2023/01/12 09:15:53;;;;;;;;;;;;;;;18.94;47.26;100351.78;5131378;27;19927;-54
2023/01/12 09:18:38;;;;;;;;;;;;;;;18.94;47.26;100354.56;5131054;27;20002;-54
2023/01/12 09:21:06;;;;;;;;;;;;;;;18.93;47.18;100341.88;5134202;27;20373;-53
2023/01/12 09:23:31;;;;;;;;;;;;;;;18.95;47.40;100350.69;5135939;27;19931;-54
2023/01/12 09:26:01;;;;;;;;;;;;;;;18.95;47.28;100355.38;5137968;27;19924;-55
2023/01/12 09:28:26;;;;;;;;;;;;;;;18.95;47.31;100358.13;5137324;27;19973;-53
2023/01/12 09:30:52;;;;;;;;;;;;;;;18.95;47.09;100353.44;5136772;27;19939;-53
2023/01/12 09:33:17;;;;;;;;;;;;;;;18.94;47.03;100353.75;5120683;27;19954;-54
2023/01/12 09:35:43;;;;;;;;;;;;;;;18.94;47.32;100357.31;5124710;27;20533;-53
2023/01/12 09:38:09;;;;;;;;;;;;;;;18.94;47.33;100360.06;5116390;27;19938;-53
2023/01/12 09:40:35;;;;;;;;;;;;;;;18.93;47.16;100355.69;5100207;27;19992;-54
2023/01/12 09:48:32;;;;;;;;;;;;;;;18.93;47.03;100374.19;5110783;27;19935;-53
2023/01/12 09:51:00;;;;;;;;;;;;;;;18.93;47.42;100383.28;5124973;27;19923;-54
2023/01/12 09:53:27;;;;;;;;;;;;;;;18.94;47.27;100378.56;5133505;27;19984;-54
2023/01/12 09:55:56;;;;;;;;;;;;;;;18.93;47.57;100380.50;5141532;27;20158;-53
2023/01/12 10:00:56;;;;;;;;;;;;;;;18.94;47.36;100400.66;5165252;27;19925;-54
2023/01/12 10:03:24;;;;;;;;;;;;;;;18.93;47.18;100407.28;5169350;27;19923;-55
2023/01/12 10:05:51;;;;;;;;;;;;;;;18.93;47.83;100401.75;5148813;27;19941;-53
2023/01/12 10:08:17;;;;;;;;;;;;;;;18.92;47.17;100409.22;5131715;27;19973;-54
2023/01/12 10:10:46;;;;;;;;;;;;;;;18.92;47.21;100409.22;5159959;27;19927;-54
2023/01/12 10:13:13;;;;;;;;;;;;;;;18.92;47.25;100408.41;5157960;27;19927;-53
2023/01/12 10:15:41;;;;;;;;;;;;;;;18.91;47.54;100392.94;5149724;27;19969;-55
2023/01/12 10:18:10;;;;;;;;;;;;;;;18.91;47.48;100401.22;5149807;27;19990;-53
2023/01/12 10:20:37;;;;;;;;;;;;;;;18.90;47.13;100403.16;5134156;27;19923;-52
2023/01/12 10:23:08;;;;;;;;;;;;;;;18.91;47.80;100407.59;5155960;27;19974;-53
2023/01/12 10:25:36;;;;;;;;;;;;;;;18.92;47.53;100405.66;5153208;27;19938;-53
2023/01/12 10:28:06;;;;;;;;;;;;;;;18.91;47.45;100403.97;5134180;27;19927;-53
2023/01/12 10:30:34;;;;;;;;;;;;;;;18.90;47.42;100400.41;5137994;27;19966;-52
2023/01/12 10:33:19;;;;;;;;;;;;;;;18.90;47.34;100402.34;5131205;27;19923;-53
2023/01/12 10:35:49;;;;;;;;;;;;;;;18.90;47.41;100403.16;5127348;27;20051;-53
2023/01/12 10:38:19;;;;;;;;;;;;;;;18.90;47.17;100400.41;5144554;27;19970;-53
2023/01/12 10:40:45;;;;;;;;;;;;;;;18.90;47.18;100403.16;5124745;27;19966;-53
2023/01/12 10:43:20;;;;;;;;;;;;;;;18.90;47.41;100402.34;5138495;27;19976;-53
2023/01/12 10:46:03;;;;;;;;;;;;;;;18.90;47.49;100397.66;5135136;27;19938;-52
2023/01/12 10:48:29;;;;;;;;;;;;;;;18.91;47.44;100401.22;5147751;27;20402;-54
2023/01/12 10:50:56;;;;;;;;;;;;;;;18.90;47.49;100403.16;5131042;27;19934;-53
2023/01/12 10:53:26;;;;;;;;;;;;;;;18.91;47.45;100401.22;5147890;27;19976;-53
2023/01/12 10:55:51;;;;;;;;;;;;;;;18.92;48.24;100409.22;5146345;27;19926;-54
2023/01/12 10:58:19;;;;;;;;;;;;;;;18.91;47.70;100409.50;5121336;27;20383;-52
2023/01/12 11:00:46;;;;;;;;;;;;;;;18.91;47.69;100412.25;5146667;27;19954;-52
2023/01/12 11:03:24;;;;;;;;;;;;;;;18.89;47.93;100418.06;5150032;27;19931;-53
2023/01/12 11:05:49;;;;;;;;;;;;;;;18.90;48.15;100407.84;5157250;27;19946;-52
2023/01/12 11:08:23;;;;;;;;;;;;;;;18.91;48.05;100412.25;5153028;27;20298;-53
2023/01/12 11:10:48;;;;;;;;;;;;;;;18.93;47.74;100415.56;5120898;27;19923;-52
2023/01/12 11:13:36;;;;;;;;;;;;;;;18.90;48.60;100402.34;5123221;27;20038;-53
2023/01/12 11:16:06;;;;;;;;;;;;;;;18.93;48.13;100408.09;5138831;27;19950;-53
2023/01/12 11:18:37;;;;;;;;;;;;;;;18.94;48.00;100412.50;5137862;27;20386;-53
2023/01/12 11:21:05;;;;;;;;;;;;;;;18.92;48.69;100406.47;5127750;27;20393;-53
2023/01/12 11:23:33;;;;;;;;;;;;;;;18.93;48.14;100410.03;5136776;27;19927;-52
2023/01/12 11:25:59;;;;;;;;;;;;;;;18.93;48.25;100410.88;5145412;27;19934;-53
2023/01/12 11:28:28;;;;;;;;;;;;;;;18.94;48.82;100411.69;5139495;27;20039;-53
2023/01/12 11:30:55;;;;;;;;;;;;;;;18.94;48.12;100408.91;5133772;27;19985;-53
2023/01/12 11:33:23;;;;;;;;;;;;;;;18.93;47.98;100419.16;5140796;27;19964;-53
2023/01/12 11:36:05;;;;;;;;;;;;;;;18.94;47.88;100411.69;5137331;27;19930;-53
2023/01/12 11:38:33;;;;;;;;;;;;;;;18.92;47.72;100395.44;5132668;27;19970;-53
2023/01/12 11:40:59;;;;;;;;;;;;;;;18.94;48.17;100409.75;5131257;27;20009;-52
2023/01/12 11:43:54;;;;;;;;;;;;;;;18.94;48.03;100398.72;5132684;27;19927;-53
2023/01/12 11:46:22;;;;;;;;;;;;;;;18.95;47.61;100403.09;5116800;27;20013;-53
2023/01/12 11:48:51;;;;;;;;;;;;;;;18.96;48.33;100401.19;5131660;27;20014;-51
2023/01/12 11:51:16;;;;;;;;;;;;;;;18.96;48.15;100390.97;5135353;27;19962;-52
2023/01/12 11:56:49;;;;;;;;;;;;;;;18.95;49.00;100386.53;4965338;28;20460;-53
2023/01/12 11:59:18;;;;;;;;;;;;;;;18.97;48.29;100389.03;4976151;28;19964;-52
2023/01/12 12:01:48;;;;;;;;;;;;;;;18.95;48.68;100386.53;4966086;28;19988;-53
2023/01/12 12:04:21;;;;;;;;;;;;;;;18.98;48.81;100377.69;4965521;28;19992;-53
2023/01/12 12:09:48;;;;;;;;;;;;;;;18.99;49.81;100379.31;5172138;27;19945;-51
2023/01/12 12:12:34;;;;;;;;;;;;;;;19.02;48.81;100366.91;5143140;27;20361;-54
2023/01/12 12:15:06;;;;;;;;;;;;;;;19.01;48.51;100374.34;5149293;27;19954;-53
2023/01/12 12:17:43;;;;;;;;;;;;;;;19.02;48.84;100364.13;5180753;27;19927;-52
2023/01/12 12:20:15;;;;;;;;;;;;;;;19.03;49.69;100374.88;5171552;27;19976;-52
2023/01/12 12:22:51;;;;;;;;;;;;;;;19.03;48.46;100365.78;5167111;27;19963;-53
2023/01/12 12:25:26;;;;;;;;;;;;;;;18.98;49.86;100366.66;5164626;27;19973;-52
2023/01/12 12:28:03;;;;;;;;;;;;;;;19.01;49.12;100370.78;5165523;27;20054;-53
2023/01/12 12:30:33;;;;;;;;;;;;;;;19.04;49.48;100364.66;5164293;27;19965;-53
2023/01/12 12:35:46;;;;;;;;;;;;;;;19.04;49.12;100365.50;5173165;27;19926;-54
2023/01/12 12:38:24;;;;;;;;;;;;;;;19.04;49.01;100364.66;5155613;27;19927;-53
2023/01/12 12:46:32;;;;;;;;;;;;;;;19.05;49.08;100352.53;5142795;27;19935;-53
2023/01/12 12:49:07;;;;;;;;;;;;;;;19.04;48.79;100367.41;5159571;27;19931;-53
2023/01/12 12:51:32;;;;;;;;;;;;;;;19.05;48.90;100355.28;5167294;27;20374;-52
2023/01/12 12:53:59;;;;;;;;;;;;;;;19.05;49.04;100347.00;5153144;27;19931;-53
2023/01/12 12:56:25;;;;;;;;;;;;;;;19.06;49.00;100348.63;5134199;27;19939;-53
2023/01/12 12:58:51;;;;;;;;;;;;;;;19.05;48.67;100350.56;5139577;27;19935;-52
2023/01/12 13:03:53;;;;;;;;;;;;;;;19.07;48.71;100349.44;5173623;27;19925;-53
2023/01/12 13:06:20;;;;;;;;;;;;;;;19.07;48.87;100343.94;5121763;27;19931;-53
2023/01/12 13:08:47;;;;;;;;;;;;;;;19.07;48.54;100343.94;5145372;27;20393;-53
2023/01/12 13:11:13;;;;;;;;;;;;;;;19.07;48.54;100336.47;5137827;27;20427;-52
2023/01/12 13:13:46;;;;;;;;;;;;;;;19.11;49.70;100334.78;5140860;27;19931;-52
2023/01/12 13:18:56;;;;;;;;;;;;;;;19.08;48.99;100346.38;5169733;27;19926;-53
2023/01/12 13:24:20;;;;;;;;;;;;;;;19.08;48.82;100335.34;5181625;27;19925;-53
2023/01/12 13:26:51;;;;;;;;;;;;;;;19.08;48.66;100327.06;5165789;27;20005;-52
2023/01/12 13:29:34;;;;;;;;;;;;;;;19.09;48.73;100338.97;5143323;27;20384;-54
2023/01/12 13:32:20;;;;;;;;;;;;;;;19.08;48.68;100329.84;5147280;27;20648;-54